createdAt,value
2019-04-04T00:03:09.432Z,10.4
2019-04-04T00:08:11.880Z,10.3
2019-04-04T00:13:14.583Z,10.2
2019-04-04T00:18:17.044Z,9.9
2019-04-04T00:23:19.234Z,9.6
2019-04-04T00:28:21.722Z,9.4
2019-04-04T00:33:25.706Z,9.2
2019-04-04T00:38:26.604Z,9.1
2019-04-04T00:43:29.129Z,8.9
2019-04-04T00:48:32.123Z,8.7
2019-04-04T00:53:34.070Z,8.5
2019-04-04T00:58:36.445Z,8.3
2019-04-04T01:03:39.050Z,8.2
2019-04-04T01:08:41.411Z,8.1
2019-04-04T01:13:44.081Z,8.1
2019-04-04T01:18:46.534Z,8.2
2019-04-04T01:23:48.697Z,8.3
2019-04-04T01:28:51.199Z,8.2
2019-04-04T01:33:53.676Z,8.3
2019-04-04T01:38:56.076Z,8.3
2019-04-04T01:44:04.747Z,8.3
2019-04-04T01:49:01.282Z,8.3
2019-04-04T01:54:03.535Z,8.1
2019-04-04T01:59:05.961Z,8
2019-04-04T02:04:08.374Z,7.9
2019-04-04T02:09:10.850Z,7.7
2019-04-04T02:14:13.366Z,7.5
2019-04-04T02:19:16.046Z,7.3
2019-04-04T02:24:18.220Z,7.1
2019-04-04T02:29:20.663Z,7.1
2019-04-04T02:34:23.136Z,7
2019-04-04T02:39:25.611Z,6.8
2019-04-04T02:44:33.136Z,6.7
2019-04-04T02:49:30.675Z,6.6
2019-04-04T02:54:32.978Z,6.4
2019-04-04T02:59:35.463Z,6.3
2019-04-04T03:04:37.892Z,6.2
2019-04-04T03:09:43.220Z,6
2019-04-04T03:14:42.842Z,5.9
2019-04-04T03:19:45.442Z,5.8
2019-04-04T03:24:47.712Z,5.7
2019-04-04T03:29:50.261Z,5.6
2019-04-04T03:34:52.606Z,5.6
2019-04-04T03:39:55.091Z,5.5
2019-04-04T03:44:57.656Z,5.4
2019-04-04T03:50:00.383Z,5.3
2019-04-04T03:55:02.433Z,5.3
2019-04-04T04:00:06.939Z,5.2
2019-04-04T04:05:07.405Z,5
2019-04-04T04:10:09.818Z,4.9
2019-04-04T04:15:12.291Z,4.8
2019-04-04T04:20:15.018Z,4.6
2019-04-04T04:25:17.204Z,4.4
2019-04-04T04:30:19.697Z,4.3
2019-04-04T04:35:22.114Z,4.1
2019-04-04T04:45:27.147Z,4
2019-04-04T04:50:29.506Z,4
2019-04-04T04:55:31.969Z,3.9
2019-04-04T05:00:34.546Z,3.8
2019-04-04T05:05:37.029Z,3.9
2019-04-04T05:10:39.403Z,3.8
2019-04-04T05:15:41.820Z,3.8
2019-04-04T05:20:44.340Z,3.9
2019-04-04T05:25:53.577Z,4
2019-04-04T05:30:49.238Z,4.1
2019-04-04T05:35:51.686Z,4.1
2019-04-04T05:40:55.301Z,4.2
2019-04-04T05:45:56.615Z,4.3
2019-04-04T05:50:59.073Z,4.5
2019-04-04T05:56:01.626Z,4.6
2019-04-04T06:01:04.077Z,5
2019-04-04T06:06:06.521Z,5.3
2019-04-04T06:11:08.908Z,5.8
2019-04-04T06:16:11.555Z,6.1
2019-04-04T06:21:13.828Z,6.7
2019-04-04T06:26:16.315Z,7.4
2019-04-04T06:31:18.789Z,8.1
2019-04-04T06:36:21.217Z,9.7
2019-04-04T06:41:23.681Z,12.7
2019-04-04T06:46:26.216Z,14.7
2019-04-04T06:56:32.000Z,16
2019-04-04T07:01:33.510Z,16.1
2019-04-04T07:06:35.988Z,16.5
2019-04-04T07:11:38.433Z,17.1
2019-04-04T07:16:40.889Z,17.4
2019-04-04T07:21:43.379Z,17.7
2019-04-04T07:26:46.070Z,19
2019-04-04T07:31:48.258Z,20.7
2019-04-04T07:36:51.164Z,20.6
2019-04-04T07:46:55.679Z,20.8
2019-04-04T07:52:00.088Z,22.5
2019-04-04T07:57:00.522Z,23.7
2019-04-04T08:02:03.026Z,24.3
2019-04-04T08:07:05.836Z,25.5
2019-04-04T08:12:07.982Z,26.8
2019-04-04T08:17:10.381Z,28.6
2019-04-04T08:22:12.982Z,28.9
2019-04-04T08:27:15.276Z,29.7
2019-04-04T08:32:17.752Z,30.1
2019-04-04T08:37:20.309Z,29.3
2019-04-04T08:42:22.717Z,28.4
2019-04-04T08:47:25.162Z,27.7
2019-04-04T08:52:27.590Z,28.1
2019-04-04T08:57:30.143Z,28.8
2019-04-04T09:02:32.535Z,28.3
2019-04-04T09:07:34.986Z,28.3
2019-04-04T09:12:37.417Z,27.9
2019-04-04T09:17:39.960Z,28.9
2019-04-04T09:22:42.340Z,30.3
2019-04-04T09:27:45.202Z,31.9
2019-04-04T09:32:47.304Z,33.5
2019-04-04T09:37:49.731Z,34.2
2019-04-04T09:47:54.666Z,33.7
2019-04-04T09:52:57.105Z,32.9
2019-04-04T09:57:59.983Z,31.3
2019-04-04T10:03:02.036Z,30.9
2019-04-04T10:08:04.594Z,31.2
2019-04-04T10:13:07.043Z,30.6
2019-04-04T10:18:09.413Z,29.7
2019-04-04T10:23:13.152Z,29.1
2019-04-04T10:28:14.660Z,29
2019-04-04T10:33:16.773Z,28.6
2019-04-04T10:38:19.250Z,29
2019-04-04T10:43:21.824Z,28.6
2019-04-04T10:48:24.191Z,28.4
2019-04-04T10:53:26.603Z,27.7
2019-04-04T10:58:29.412Z,27.6
2019-04-04T11:03:31.523Z,28
2019-04-04T11:08:34.009Z,29.1
2019-04-04T11:13:36.548Z,29
2019-04-04T11:18:38.928Z,28.3
2019-04-04T11:23:41.466Z,28.2
2019-04-04T11:28:44.180Z,28.6
2019-04-04T11:33:46.292Z,27.7
2019-04-04T11:38:48.731Z,27.6
2019-04-04T11:43:51.348Z,27.3
2019-04-04T11:53:56.126Z,26.7
2019-04-04T11:58:58.587Z,26.4
2019-04-04T12:04:01.041Z,27.2
2019-04-04T12:09:03.486Z,27.3
2019-04-04T12:14:06.028Z,27.7
2019-04-04T12:19:08.469Z,28.5
2019-04-04T12:24:10.890Z,28.3
2019-04-04T12:29:13.408Z,28.4
2019-04-04T12:34:15.788Z,28.2
2019-04-04T12:39:18.321Z,28.1
2019-04-04T12:44:20.756Z,27.1
2019-04-04T12:54:25.642Z,25.8
2019-04-04T12:59:28.109Z,26.2
2019-04-04T13:04:32.038Z,25.9
2019-04-04T13:09:33.017Z,24.9
2019-04-04T13:14:35.668Z,25
2019-04-04T13:19:37.965Z,25.5
2019-04-04T13:24:40.499Z,25.3
2019-04-04T13:29:42.839Z,25.2
2019-04-04T13:34:45.301Z,25
2019-04-04T13:39:47.862Z,24.9
2019-04-04T13:44:50.566Z,23.9
2019-04-04T13:49:52.689Z,22.8
2019-04-04T13:54:55.895Z,21.9
2019-04-04T13:59:57.628Z,21.4
2019-04-04T14:05:09.475Z,21.1
2019-04-04T14:10:02.657Z,21.2
2019-04-04T14:15:04.977Z,21.3
2019-04-04T14:20:07.443Z,21.1
2019-04-04T14:25:10.167Z,20.8
2019-04-04T14:30:12.363Z,20.7
2019-04-04T14:35:15.200Z,20.6
2019-04-04T14:40:17.447Z,20.4
2019-04-04T14:45:19.732Z,20.1
2019-04-04T14:50:22.209Z,19.9
2019-04-04T14:55:24.872Z,19.7
2019-04-04T15:00:27.244Z,19.7
2019-04-04T15:05:29.637Z,19.7
2019-04-04T15:10:32.112Z,19.7
2019-04-04T15:15:34.526Z,19.6
2019-04-04T15:20:37.019Z,19.6
2019-04-04T15:25:39.452Z,19.5
2019-04-04T15:30:41.923Z,19.5
2019-04-04T15:35:44.302Z,19.6
2019-04-04T15:40:46.811Z,19.6
2019-04-04T15:45:49.223Z,19.5
2019-04-04T15:50:52.223Z,19.5
2019-04-04T15:55:54.273Z,19.4
2019-04-04T16:00:56.601Z,19.5
2019-04-04T16:05:59.466Z,19.5
2019-04-04T16:11:01.512Z,19.5
2019-04-04T16:16:03.986Z,19.5
2019-04-04T16:26:08.896Z,19.2
2019-04-04T16:31:11.358Z,19.1
2019-04-04T16:36:13.880Z,18.9
2019-04-04T16:41:16.371Z,18.9
2019-04-04T16:46:18.775Z,18.6
2019-04-04T16:51:21.233Z,18.6
2019-04-04T16:56:23.729Z,18.4
2019-04-04T17:01:26.123Z,18.3
2019-04-04T17:06:28.615Z,18.1
2019-04-04T17:11:31.089Z,17.9
2019-04-04T17:16:33.503Z,17.7
2019-04-04T17:21:36.007Z,17.4
2019-04-04T17:26:38.505Z,17.2
2019-04-04T17:31:41.114Z,17
2019-04-04T17:36:43.355Z,16.8
2019-04-04T17:41:45.803Z,16.6
2019-04-04T17:46:48.355Z,16.4
2019-04-04T17:51:50.690Z,16.2
2019-04-04T17:56:53.599Z,16
2019-04-04T18:01:55.583Z,15.8
2019-04-04T18:06:58.350Z,15.5
2019-04-04T18:17:02.998Z,15
2019-04-04T18:22:05.520Z,14.8
2019-04-04T18:27:07.922Z,14.5
2019-04-04T18:32:10.368Z,14.3
2019-04-04T18:37:12.821Z,14.1
2019-04-04T18:42:15.282Z,13.8
2019-04-04T18:47:17.719Z,13.6
2019-04-04T18:52:20.215Z,13.5
2019-04-04T18:57:22.681Z,13.5
2019-04-04T19:02:25.100Z,13.5
2019-04-04T19:07:38.609Z,13.6
2019-04-04T19:12:30.059Z,13.6
2019-04-04T19:17:32.473Z,13.6
2019-04-04T19:22:35.202Z,13.6
2019-04-04T19:27:37.378Z,13.6
2019-04-04T19:32:39.863Z,13.7
2019-04-04T19:37:42.283Z,13.6
2019-04-04T19:42:44.751Z,13.6
2019-04-04T19:47:47.207Z,13.6
2019-04-04T19:52:49.731Z,13.6
2019-04-04T19:57:52.167Z,13.5
2019-04-04T20:02:54.600Z,13.5
2019-04-04T20:07:57.031Z,13.4
2019-04-04T20:12:59.483Z,13.3
2019-04-04T20:18:07.069Z,13.3
2019-04-04T20:23:04.556Z,13.2
2019-04-04T20:28:07.030Z,13.3
2019-04-04T20:33:09.322Z,13.2
2019-04-04T20:38:11.837Z,13.1
2019-04-04T20:43:14.306Z,13.1
2019-04-04T20:48:16.755Z,13
2019-04-04T20:53:21.968Z,12.9
2019-04-04T20:58:21.635Z,12.7
2019-04-04T21:03:24.219Z,12.4
2019-04-04T21:08:26.606Z,12.1
2019-04-04T21:13:29.004Z,12
2019-04-04T21:18:31.493Z,11.8
2019-04-04T21:23:33.973Z,11.6
2019-04-04T21:28:36.598Z,11.4
2019-04-04T21:33:38.835Z,11.1
2019-04-04T21:38:41.459Z,10.9
2019-04-04T21:43:43.741Z,10.7
2019-04-04T21:48:46.219Z,10.4
2019-04-04T21:53:48.750Z,10.3
2019-04-04T21:58:51.137Z,10
2019-04-04T22:08:56.015Z,9.7
2019-04-04T22:13:58.510Z,9.7
2019-04-04T22:19:00.955Z,9.6
2019-04-04T22:24:03.394Z,9.5
2019-04-04T22:29:05.846Z,9.4
2019-04-04T22:34:08.477Z,9.3
2019-04-04T22:39:10.769Z,9.2
2019-04-04T22:44:13.591Z,9.2
2019-04-04T22:49:15.672Z,9.2
2019-04-04T22:54:18.191Z,9.1
2019-04-04T22:59:20.600Z,9.1
2019-04-04T23:04:23.054Z,9
2019-04-04T23:09:25.597Z,9
2019-04-04T23:14:28.308Z,9
2019-04-04T23:19:30.421Z,9
2019-04-04T23:24:32.902Z,9.1
2019-04-04T23:29:35.402Z,9.2
2019-04-04T23:34:37.791Z,9.4
2019-04-04T23:39:40.404Z,9.5
2019-04-04T23:44:43.129Z,9.7
2019-04-04T23:49:45.176Z,9.8
2019-04-04T23:54:47.647Z,9.9
2019-04-04T23:59:50.074Z,10
